sensor_id;sensor_type;location;lat;lon;timestamp;P1;durP1;ratioP1;P2;durP2;ratioP2
21034;SDS011;10676;50.848;3.272;2023-05-07T00:02:24;20.30;;;13.93;;
21034;SDS011;10676;50.848;3.272;2023-05-07T00:04:50;16.90;;;14.23;;
21034;SDS011;10676;50.848;3.272;2023-05-07T00:07:17;18.58;;;14.70;;
21034;SDS011;10676;50.848;3.272;2023-05-07T00:09:42;19.45;;;14.85;;
21034;SDS011;10676;50.848;3.272;2023-05-07T00:12:08;26.75;;;15.65;;
21034;SDS011;10676;50.848;3.272;2023-05-07T00:14:34;21.67;;;14.00;;
21034;SDS011;10676;50.848;3.272;2023-05-07T00:17:01;20.70;;;15.23;;
21034;SDS011;10676;50.848;3.272;2023-05-07T00:19:27;18.75;;;15.07;;
21034;SDS011;10676;50.848;3.272;2023-05-07T00:21:52;17.92;;;15.20;;
21034;SDS011;10676;50.848;3.272;2023-05-07T00:24:19;20.27;;;14.27;;
21034;SDS011;10676;50.848;3.272;2023-05-07T00:26:44;25.20;;;15.18;;
21034;SDS011;10676;50.848;3.272;2023-05-07T00:29:10;22.63;;;15.27;;
21034;SDS011;10676;50.848;3.272;2023-05-07T00:31:36;21.25;;;14.75;;
21034;SDS011;10676;50.848;3.272;2023-05-07T00:34:01;19.70;;;14.43;;
21034;SDS011;10676;50.848;3.272;2023-05-07T00:36:27;21.27;;;15.13;;
21034;SDS011;10676;50.848;3.272;2023-05-07T00:38:54;22.70;;;15.45;;
21034;SDS011;10676;50.848;3.272;2023-05-07T00:41:21;23.92;;;14.50;;
21034;SDS011;10676;50.848;3.272;2023-05-07T00:43:47;19.40;;;14.18;;
21034;SDS011;10676;50.848;3.272;2023-05-07T00:46:13;17.48;;;13.32;;
21034;SDS011;10676;50.848;3.272;2023-05-07T00:48:40;21.33;;;13.77;;
21034;SDS011;10676;50.848;3.272;2023-05-07T00:51:06;21.38;;;14.07;;
21034;SDS011;10676;50.848;3.272;2023-05-07T00:53:32;20.33;;;13.40;;
21034;SDS011;10676;50.848;3.272;2023-05-07T00:55:57;20.70;;;14.10;;
21034;SDS011;10676;50.848;3.272;2023-05-07T00:58:25;16.23;;;13.82;;
21034;SDS011;10676;50.848;3.272;2023-05-07T01:00:51;25.10;;;13.82;;
21034;SDS011;10676;50.848;3.272;2023-05-07T01:03:17;20.65;;;13.20;;
21034;SDS011;10676;50.848;3.272;2023-05-07T01:05:43;20.70;;;13.32;;
21034;SDS011;10676;50.848;3.272;2023-05-07T01:08:11;17.63;;;13.25;;
21034;SDS011;10676;50.848;3.272;2023-05-07T01:10:39;19.42;;;13.70;;
21034;SDS011;10676;50.848;3.272;2023-05-07T01:13:07;20.75;;;13.73;;
21034;SDS011;10676;50.848;3.272;2023-05-07T01:15:35;25.25;;;13.93;;
21034;SDS011;10676;50.848;3.272;2023-05-07T01:18:01;23.50;;;13.95;;
21034;SDS011;10676;50.848;3.272;2023-05-07T01:20:28;20.35;;;14.93;;
21034;SDS011;10676;50.848;3.272;2023-05-07T01:22:54;23.75;;;14.45;;
21034;SDS011;10676;50.848;3.272;2023-05-07T01:25:21;20.13;;;14.50;;
21034;SDS011;10676;50.848;3.272;2023-05-07T01:27:47;20.63;;;15.05;;
21034;SDS011;10676;50.848;3.272;2023-05-07T01:30:13;22.60;;;14.93;;
21034;SDS011;10676;50.848;3.272;2023-05-07T01:32:44;22.23;;;14.65;;
21034;SDS011;10676;50.848;3.272;2023-05-07T01:35:18;25.05;;;14.57;;
21034;SDS011;10676;50.848;3.272;2023-05-07T01:37:46;23.73;;;13.75;;
21034;SDS011;10676;50.848;3.272;2023-05-07T01:40:12;20.75;;;13.88;;
21034;SDS011;10676;50.848;3.272;2023-05-07T01:42:38;20.73;;;14.23;;
21034;SDS011;10676;50.848;3.272;2023-05-07T01:45:06;25.35;;;14.73;;
21034;SDS011;10676;50.848;3.272;2023-05-07T01:47:32;18.98;;;13.45;;
21034;SDS011;10676;50.848;3.272;2023-05-07T01:49:58;18.17;;;13.93;;
21034;SDS011;10676;50.848;3.272;2023-05-07T01:52:24;25.67;;;14.30;;
21034;SDS011;10676;50.848;3.272;2023-05-07T01:54:50;23.15;;;14.35;;
21034;SDS011;10676;50.848;3.272;2023-05-07T01:57:16;21.42;;;14.80;;
21034;SDS011;10676;50.848;3.272;2023-05-07T01:59:41;25.42;;;13.85;;
21034;SDS011;10676;50.848;3.272;2023-05-07T02:02:07;19.50;;;14.20;;
21034;SDS011;10676;50.848;3.272;2023-05-07T02:04:33;23.77;;;14.65;;
21034;SDS011;10676;50.848;3.272;2023-05-07T02:06:58;19.52;;;14.30;;
21034;SDS011;10676;50.848;3.272;2023-05-07T02:09:24;20.80;;;13.50;;
21034;SDS011;10676;50.848;3.272;2023-05-07T02:11:50;19.83;;;13.82;;
21034;SDS011;10676;50.848;3.272;2023-05-07T02:14:15;25.70;;;14.57;;
21034;SDS011;10676;50.848;3.272;2023-05-07T02:16:41;21.30;;;14.40;;
21034;SDS011;10676;50.848;3.272;2023-05-07T02:19:07;24.65;;;14.18;;
21034;SDS011;10676;50.848;3.272;2023-05-07T02:21:32;17.60;;;13.93;;
21034;SDS011;10676;50.848;3.272;2023-05-07T02:23:58;23.70;;;14.20;;
21034;SDS011;10676;50.848;3.272;2023-05-07T02:26:24;17.35;;;14.10;;
21034;SDS011;10676;50.848;3.272;2023-05-07T02:28:50;22.30;;;15.27;;
21034;SDS011;10676;50.848;3.272;2023-05-07T02:31:17;18.02;;;14.15;;
21034;SDS011;10676;50.848;3.272;2023-05-07T02:33:42;24.95;;;13.80;;
21034;SDS011;10676;50.848;3.272;2023-05-07T02:36:08;25.38;;;14.70;;
21034;SDS011;10676;50.848;3.272;2023-05-07T02:38:35;22.17;;;14.52;;
21034;SDS011;10676;50.848;3.272;2023-05-07T02:41:01;20.63;;;14.40;;
21034;SDS011;10676;50.848;3.272;2023-05-07T02:43:26;18.27;;;13.90;;
21034;SDS011;10676;50.848;3.272;2023-05-07T02:46:04;23.75;;;14.77;;
21034;SDS011;10676;50.848;3.272;2023-05-07T02:48:31;23.38;;;16.10;;
21034;SDS011;10676;50.848;3.272;2023-05-07T02:50:57;21.23;;;14.50;;
21034;SDS011;10676;50.848;3.272;2023-05-07T02:53:23;18.42;;;15.02;;
21034;SDS011;10676;50.848;3.272;2023-05-07T02:56:00;23.70;;;14.35;;
21034;SDS011;10676;50.848;3.272;2023-05-07T02:58:26;19.67;;;13.93;;
21034;SDS011;10676;50.848;3.272;2023-05-07T03:00:52;18.10;;;13.43;;
21034;SDS011;10676;50.848;3.272;2023-05-07T03:03:19;22.23;;;15.10;;
21034;SDS011;10676;50.848;3.272;2023-05-07T03:05:45;18.23;;;14.77;;
21034;SDS011;10676;50.848;3.272;2023-05-07T03:08:11;24.20;;;14.13;;
21034;SDS011;10676;50.848;3.272;2023-05-07T03:10:37;25.98;;;17.75;;
21034;SDS011;10676;50.848;3.272;2023-05-07T03:13:03;27.33;;;23.35;;
21034;SDS011;10676;50.848;3.272;2023-05-07T03:15:28;43.33;;;39.13;;
21034;SDS011;10676;50.848;3.272;2023-05-07T03:17:54;46.40;;;42.08;;
21034;SDS011;10676;50.848;3.272;2023-05-07T03:20:20;39.05;;;35.05;;
21034;SDS011;10676;50.848;3.272;2023-05-07T03:22:46;22.45;;;14.75;;
21034;SDS011;10676;50.848;3.272;2023-05-07T03:25:12;22.63;;;13.07;;
21034;SDS011;10676;50.848;3.272;2023-05-07T03:27:39;20.92;;;14.38;;
21034;SDS011;10676;50.848;3.272;2023-05-07T03:30:04;15.65;;;14.00;;
21034;SDS011;10676;50.848;3.272;2023-05-07T03:32:31;23.65;;;14.85;;
21034;SDS011;10676;50.848;3.272;2023-05-07T03:34:57;21.85;;;14.70;;
21034;SDS011;10676;50.848;3.272;2023-05-07T03:37:23;18.70;;;14.10;;
21034;SDS011;10676;50.848;3.272;2023-05-07T03:39:49;20.10;;;14.65;;
21034;SDS011;10676;50.848;3.272;2023-05-07T03:42:14;18.63;;;13.40;;
21034;SDS011;10676;50.848;3.272;2023-05-07T03:44:40;19.15;;;14.18;;
21034;SDS011;10676;50.848;3.272;2023-05-07T03:47:06;16.23;;;12.98;;
21034;SDS011;10676;50.848;3.272;2023-05-07T03:49:31;18.90;;;13.90;;
21034;SDS011;10676;50.848;3.272;2023-05-07T03:51:57;19.73;;;13.73;;
21034;SDS011;10676;50.848;3.272;2023-05-07T03:54:23;21.85;;;13.98;;
21034;SDS011;10676;50.848;3.272;2023-05-07T03:56:48;19.88;;;13.98;;
21034;SDS011;10676;50.848;3.272;2023-05-07T03:59:14;15.95;;;13.15;;
21034;SDS011;10676;50.848;3.272;2023-05-07T04:01:40;18.25;;;13.70;;
21034;SDS011;10676;50.848;3.272;2023-05-07T04:04:05;19.50;;;14.35;;
21034;SDS011;10676;50.848;3.272;2023-05-07T04:06:31;24.60;;;14.00;;
21034;SDS011;10676;50.848;3.272;2023-05-07T04:08:57;17.67;;;15.18;;
21034;SDS011;10676;50.848;3.272;2023-05-07T04:11:23;19.73;;;14.07;;
21034;SDS011;10676;50.848;3.272;2023-05-07T04:13:48;18.17;;;14.15;;
21034;SDS011;10676;50.848;3.272;2023-05-07T04:16:14;22.20;;;14.52;;
21034;SDS011;10676;50.848;3.272;2023-05-07T04:18:40;21.25;;;14.32;;
21034;SDS011;10676;50.848;3.272;2023-05-07T04:21:13;17.73;;;14.35;;
21034;SDS011;10676;50.848;3.272;2023-05-07T04:23:43;19.90;;;14.23;;
21034;SDS011;10676;50.848;3.272;2023-05-07T04:26:08;22.05;;;14.07;;
21034;SDS011;10676;50.848;3.272;2023-05-07T04:28:34;19.73;;;14.75;;
21034;SDS011;10676;50.848;3.272;2023-05-07T04:31:00;20.98;;;13.93;;
21034;SDS011;10676;50.848;3.272;2023-05-07T04:33:26;20.60;;;14.38;;
21034;SDS011;10676;50.848;3.272;2023-05-07T04:35:51;18.15;;;13.48;;
21034;SDS011;10676;50.848;3.272;2023-05-07T04:38:17;20.73;;;13.02;;
21034;SDS011;10676;50.848;3.272;2023-05-07T04:40:43;19.15;;;13.20;;
21034;SDS011;10676;50.848;3.272;2023-05-07T04:43:09;15.23;;;13.25;;
21034;SDS011;10676;50.848;3.272;2023-05-07T04:45:35;20.98;;;14.40;;
21034;SDS011;10676;50.848;3.272;2023-05-07T04:48:01;20.55;;;13.63;;
21034;SDS011;10676;50.848;3.272;2023-05-07T04:50:27;19.40;;;14.70;;
21034;SDS011;10676;50.848;3.272;2023-05-07T04:52:53;24.42;;;16.42;;
21034;SDS011;10676;50.848;3.272;2023-05-07T04:55:18;19.42;;;14.23;;
21034;SDS011;10676;50.848;3.272;2023-05-07T04:57:44;29.15;;;15.35;;
21034;SDS011;10676;50.848;3.272;2023-05-07T05:00:10;24.20;;;15.45;;
21034;SDS011;10676;50.848;3.272;2023-05-07T05:02:39;21.45;;;15.20;;
21034;SDS011;10676;50.848;3.272;2023-05-07T05:05:06;19.40;;;15.27;;
21034;SDS011;10676;50.848;3.272;2023-05-07T05:07:32;24.27;;;15.10;;
21034;SDS011;10676;50.848;3.272;2023-05-07T05:09:58;20.63;;;15.05;;
21034;SDS011;10676;50.848;3.272;2023-05-07T05:12:23;21.98;;;14.95;;
21034;SDS011;10676;50.848;3.272;2023-05-07T05:14:49;19.08;;;15.65;;
21034;SDS011;10676;50.848;3.272;2023-05-07T05:17:15;23.05;;;16.23;;
21034;SDS011;10676;50.848;3.272;2023-05-07T05:19:41;24.85;;;17.08;;
21034;SDS011;10676;50.848;3.272;2023-05-07T05:22:06;24.25;;;17.63;;
21034;SDS011;10676;50.848;3.272;2023-05-07T05:24:32;22.08;;;16.33;;
21034;SDS011;10676;50.848;3.272;2023-05-07T05:26:58;21.08;;;16.60;;
21034;SDS011;10676;50.848;3.272;2023-05-07T05:29:27;24.38;;;15.90;;
21034;SDS011;10676;50.848;3.272;2023-05-07T05:31:52;23.13;;;16.02;;
21034;SDS011;10676;50.848;3.272;2023-05-07T05:34:18;26.15;;;16.77;;
21034;SDS011;10676;50.848;3.272;2023-05-07T05:36:47;17.63;;;15.30;;
21034;SDS011;10676;50.848;3.272;2023-05-07T05:39:12;20.90;;;14.80;;
21034;SDS011;10676;50.848;3.272;2023-05-07T05:41:39;19.55;;;14.75;;
21034;SDS011;10676;50.848;3.272;2023-05-07T05:44:04;20.77;;;15.00;;
21034;SDS011;10676;50.848;3.272;2023-05-07T05:46:30;22.75;;;16.20;;
21034;SDS011;10676;50.848;3.272;2023-05-07T05:48:56;24.80;;;15.82;;
21034;SDS011;10676;50.848;3.272;2023-05-07T05:51:22;24.85;;;15.55;;
21034;SDS011;10676;50.848;3.272;2023-05-07T05:53:48;24.17;;;16.80;;
21034;SDS011;10676;50.848;3.272;2023-05-07T05:56:14;19.42;;;16.52;;
21034;SDS011;10676;50.848;3.272;2023-05-07T05:58:40;24.50;;;16.23;;
21034;SDS011;10676;50.848;3.272;2023-05-07T06:01:06;21.88;;;15.10;;
21034;SDS011;10676;50.848;3.272;2023-05-07T06:03:32;22.17;;;14.55;;
21034;SDS011;10676;50.848;3.272;2023-05-07T06:05:58;22.13;;;14.48;;
21034;SDS011;10676;50.848;3.272;2023-05-07T06:08:25;19.55;;;14.40;;
21034;SDS011;10676;50.848;3.272;2023-05-07T06:10:51;23.55;;;14.77;;
21034;SDS011;10676;50.848;3.272;2023-05-07T06:13:16;21.73;;;14.70;;
21034;SDS011;10676;50.848;3.272;2023-05-07T06:15:42;21.13;;;13.68;;
21034;SDS011;10676;50.848;3.272;2023-05-07T06:18:08;19.38;;;13.35;;
21034;SDS011;10676;50.848;3.272;2023-05-07T06:20:33;18.90;;;13.55;;
21034;SDS011;10676;50.848;3.272;2023-05-07T06:22:59;18.80;;;13.63;;
21034;SDS011;10676;50.848;3.272;2023-05-07T06:25:25;17.48;;;13.55;;
21034;SDS011;10676;50.848;3.272;2023-05-07T06:27:50;18.60;;;12.50;;
21034;SDS011;10676;50.848;3.272;2023-05-07T06:30:16;18.20;;;13.18;;
21034;SDS011;10676;50.848;3.272;2023-05-07T06:32:42;16.85;;;14.57;;
21034;SDS011;10676;50.848;3.272;2023-05-07T06:35:07;21.05;;;15.05;;
21034;SDS011;10676;50.848;3.272;2023-05-07T06:37:33;19.40;;;14.15;;
21034;SDS011;10676;50.848;3.272;2023-05-07T06:39:59;21.08;;;14.73;;
21034;SDS011;10676;50.848;3.272;2023-05-07T06:42:25;22.50;;;16.17;;
21034;SDS011;10676;50.848;3.272;2023-05-07T06:44:51;25.63;;;15.95;;
21034;SDS011;10676;50.848;3.272;2023-05-07T06:47:17;21.45;;;15.80;;
21034;SDS011;10676;50.848;3.272;2023-05-07T06:49:42;20.00;;;16.00;;
21034;SDS011;10676;50.848;3.272;2023-05-07T06:52:08;25.00;;;17.80;;
21034;SDS011;10676;50.848;3.272;2023-05-07T06:54:34;19.15;;;16.17;;
21034;SDS011;10676;50.848;3.272;2023-05-07T06:57:00;22.98;;;16.70;;
21034;SDS011;10676;50.848;3.272;2023-05-07T06:59:25;29.52;;;18.13;;
21034;SDS011;10676;50.848;3.272;2023-05-07T07:01:51;21.77;;;17.05;;
21034;SDS011;10676;50.848;3.272;2023-05-07T07:04:17;19.63;;;16.77;;
21034;SDS011;10676;50.848;3.272;2023-05-07T07:06:42;27.85;;;17.90;;
21034;SDS011;10676;50.848;3.272;2023-05-07T07:09:08;23.92;;;18.92;;
21034;SDS011;10676;50.848;3.272;2023-05-07T07:11:34;23.05;;;17.08;;
21034;SDS011;10676;50.848;3.272;2023-05-07T07:13:59;20.77;;;18.60;;
21034;SDS011;10676;50.848;3.272;2023-05-07T07:16:25;27.13;;;19.88;;
21034;SDS011;10676;50.848;3.272;2023-05-07T07:18:51;24.42;;;18.33;;
21034;SDS011;10676;50.848;3.272;2023-05-07T07:21:16;26.10;;;19.83;;
21034;SDS011;10676;50.848;3.272;2023-05-07T07:23:42;26.77;;;18.27;;
21034;SDS011;10676;50.848;3.272;2023-05-07T07:26:08;23.25;;;16.73;;
21034;SDS011;10676;50.848;3.272;2023-05-07T07:28:34;23.55;;;18.98;;
21034;SDS011;10676;50.848;3.272;2023-05-07T07:30:59;23.60;;;18.13;;
21034;SDS011;10676;50.848;3.272;2023-05-07T07:33:25;20.45;;;18.23;;
21034;SDS011;10676;50.848;3.272;2023-05-07T07:35:51;21.98;;;18.75;;
21034;SDS011;10676;50.848;3.272;2023-05-07T07:38:16;25.58;;;18.13;;
21034;SDS011;10676;50.848;3.272;2023-05-07T07:40:42;19.58;;;17.33;;
21034;SDS011;10676;50.848;3.272;2023-05-07T07:43:08;22.85;;;17.30;;
21034;SDS011;10676;50.848;3.272;2023-05-07T07:45:34;19.83;;;16.08;;
21034;SDS011;10676;50.848;3.272;2023-05-07T07:48:00;18.88;;;15.07;;
21034;SDS011;10676;50.848;3.272;2023-05-07T07:50:26;17.80;;;14.40;;
21034;SDS011;10676;50.848;3.272;2023-05-07T07:52:52;16.23;;;13.63;;
21034;SDS011;10676;50.848;3.272;2023-05-07T07:55:19;16.83;;;13.52;;
21034;SDS011;10676;50.848;3.272;2023-05-07T07:57:47;16.50;;;13.48;;
21034;SDS011;10676;50.848;3.272;2023-05-07T08:00:14;15.35;;;13.48;;
21034;SDS011;10676;50.848;3.272;2023-05-07T08:02:40;14.00;;;12.45;;
21034;SDS011;10676;50.848;3.272;2023-05-07T08:05:06;18.20;;;13.63;;
21034;SDS011;10676;50.848;3.272;2023-05-07T08:07:32;15.88;;;13.18;;
21034;SDS011;10676;50.848;3.272;2023-05-07T08:09:58;16.88;;;11.95;;
21034;SDS011;10676;50.848;3.272;2023-05-07T08:12:23;12.20;;;11.07;;
21034;SDS011;10676;50.848;3.272;2023-05-07T08:14:49;15.45;;;11.52;;
21034;SDS011;10676;50.848;3.272;2023-05-07T08:17:15;12.10;;;10.88;;
21034;SDS011;10676;50.848;3.272;2023-05-07T08:19:41;13.65;;;10.88;;
21034;SDS011;10676;50.848;3.272;2023-05-07T08:22:08;12.07;;;10.57;;
21034;SDS011;10676;50.848;3.272;2023-05-07T08:24:35;15.90;;;10.85;;
21034;SDS011;10676;50.848;3.272;2023-05-07T08:27:01;16.08;;;12.88;;
21034;SDS011;10676;50.848;3.272;2023-05-07T08:29:27;16.65;;;10.85;;
21034;SDS011;10676;50.848;3.272;2023-05-07T08:31:53;11.60;;;10.48;;
21034;SDS011;10676;50.848;3.272;2023-05-07T08:34:19;11.98;;;10.70;;
21034;SDS011;10676;50.848;3.272;2023-05-07T08:36:46;16.58;;;11.05;;
21034;SDS011;10676;50.848;3.272;2023-05-07T08:39:13;14.48;;;10.98;;
21034;SDS011;10676;50.848;3.272;2023-05-07T08:41:41;14.90;;;9.65;;
21034;SDS011;10676;50.848;3.272;2023-05-07T08:44:13;12.82;;;10.50;;
21034;SDS011;10676;50.848;3.272;2023-05-07T08:46:39;13.02;;;9.38;;
21034;SDS011;10676;50.848;3.272;2023-05-07T08:49:06;12.20;;;10.98;;
21034;SDS011;10676;50.848;3.272;2023-05-07T08:51:33;13.05;;;10.32;;
21034;SDS011;10676;50.848;3.272;2023-05-07T08:54:00;12.35;;;11.15;;
21034;SDS011;10676;50.848;3.272;2023-05-07T08:56:27;12.57;;;11.27;;
21034;SDS011;10676;50.848;3.272;2023-05-07T08:58:52;10.75;;;9.70;;
21034;SDS011;10676;50.848;3.272;2023-05-07T09:01:21;14.45;;;9.48;;
21034;SDS011;10676;50.848;3.272;2023-05-07T09:03:47;13.02;;;11.23;;
21034;SDS011;10676;50.848;3.272;2023-05-07T09:06:13;9.93;;;8.85;;
21034;SDS011;10676;50.848;3.272;2023-05-07T09:08:39;13.57;;;10.02;;
21034;SDS011;10676;50.848;3.272;2023-05-07T09:11:04;12.57;;;9.70;;
21034;SDS011;10676;50.848;3.272;2023-05-07T09:13:30;12.73;;;9.68;;
21034;SDS011;10676;50.848;3.272;2023-05-07T09:15:56;11.32;;;9.52;;
21034;SDS011;10676;50.848;3.272;2023-05-07T09:18:25;9.68;;;8.68;;
21034;SDS011;10676;50.848;3.272;2023-05-07T09:20:51;9.27;;;8.25;;
21034;SDS011;10676;50.848;3.272;2023-05-07T09:23:16;11.50;;;9.25;;
21034;SDS011;10676;50.848;3.272;2023-05-07T09:25:42;10.10;;;9.15;;
21034;SDS011;10676;50.848;3.272;2023-05-07T09:28:08;12.70;;;9.18;;
21034;SDS011;10676;50.848;3.272;2023-05-07T09:30:35;9.13;;;8.30;;
21034;SDS011;10676;50.848;3.272;2023-05-07T09:33:01;11.45;;;10.38;;
21034;SDS011;10676;50.848;3.272;2023-05-07T09:35:29;9.35;;;8.40;;
21034;SDS011;10676;50.848;3.272;2023-05-07T09:37:56;9.77;;;8.55;;
21034;SDS011;10676;50.848;3.272;2023-05-07T09:40:23;10.45;;;9.38;;
21034;SDS011;10676;50.848;3.272;2023-05-07T09:42:54;9.05;;;7.95;;
21034;SDS011;10676;50.848;3.272;2023-05-07T09:45:24;9.52;;;8.60;;
21034;SDS011;10676;50.848;3.272;2023-05-07T09:47:53;8.32;;;7.50;;
21034;SDS011;10676;50.848;3.272;2023-05-07T09:50:27;11.13;;;8.27;;
21034;SDS011;10676;50.848;3.272;2023-05-07T09:52:55;8.90;;;6.38;;
21034;SDS011;10676;50.848;3.272;2023-05-07T09:55:21;8.95;;;6.60;;
21034;SDS011;10676;50.848;3.272;2023-05-07T09:57:51;7.80;;;6.05;;
21034;SDS011;10676;50.848;3.272;2023-05-07T10:00:18;8.63;;;7.80;;
21034;SDS011;10676;50.848;3.272;2023-05-07T10:02:49;8.32;;;6.93;;
21034;SDS011;10676;50.848;3.272;2023-05-07T10:05:21;7.65;;;6.25;;
21034;SDS011;10676;50.848;3.272;2023-05-07T10:07:47;8.23;;;7.47;;
21034;SDS011;10676;50.848;3.272;2023-05-07T10:10:13;7.78;;;7.18;;
21034;SDS011;10676;50.848;3.272;2023-05-07T10:12:43;8.43;;;7.72;;
21034;SDS011;10676;50.848;3.272;2023-05-07T10:15:09;8.15;;;7.35;;
21034;SDS011;10676;50.848;3.272;2023-05-07T10:17:36;8.88;;;6.70;;
21034;SDS011;10676;50.848;3.272;2023-05-07T10:20:02;7.05;;;6.45;;
21034;SDS011;10676;50.848;3.272;2023-05-07T10:22:30;7.93;;;7.18;;
21034;SDS011;10676;50.848;3.272;2023-05-07T10:25:14;8.20;;;7.13;;
21034;SDS011;10676;50.848;3.272;2023-05-07T10:27:53;7.68;;;7.07;;
21034;SDS011;10676;50.848;3.272;2023-05-07T10:32:50;8.50;;;7.80;;
21034;SDS011;10676;50.848;3.272;2023-05-07T10:35:21;7.55;;;6.95;;
21034;SDS011;10676;50.848;3.272;2023-05-07T10:37:49;7.07;;;6.47;;
21034;SDS011;10676;50.848;3.272;2023-05-07T10:40:16;8.15;;;7.45;;
21034;SDS011;10676;50.848;3.272;2023-05-07T10:45:29;7.70;;;6.93;;
21034;SDS011;10676;50.848;3.272;2023-05-07T10:48:05;7.78;;;7.18;;
21034;SDS011;10676;50.848;3.272;2023-05-07T10:50:36;7.05;;;6.43;;
21034;SDS011;10676;50.848;3.272;2023-05-07T10:55:48;6.15;;;5.60;;
21034;SDS011;10676;50.848;3.272;2023-05-07T11:00:47;6.82;;;6.18;;
21034;SDS011;10676;50.848;3.272;2023-05-07T11:03:13;7.18;;;6.32;;
21034;SDS011;10676;50.848;3.272;2023-05-07T11:05:41;6.25;;;5.75;;
21034;SDS011;10676;50.848;3.272;2023-05-07T11:08:07;7.10;;;6.40;;
21034;SDS011;10676;50.848;3.272;2023-05-07T11:10:49;6.45;;;5.88;;
21034;SDS011;10676;50.848;3.272;2023-05-07T11:16:23;6.68;;;6.10;;
21034;SDS011;10676;50.848;3.272;2023-05-07T11:18:54;9.52;;;8.82;;
21034;SDS011;10676;50.848;3.272;2023-05-07T11:21:37;8.57;;;7.90;;
21034;SDS011;10676;50.848;3.272;2023-05-07T11:24:06;9.40;;;8.60;;
21034;SDS011;10676;50.848;3.272;2023-05-07T11:26:44;10.18;;;9.48;;
21034;SDS011;10676;50.848;3.272;2023-05-07T11:29:18;9.65;;;8.85;;
21034;SDS011;10676;50.848;3.272;2023-05-07T11:31:48;11.65;;;10.68;;
21034;SDS011;10676;50.848;3.272;2023-05-07T11:34:15;12.65;;;11.70;;
21034;SDS011;10676;50.848;3.272;2023-05-07T11:36:46;12.65;;;11.55;;
21034;SDS011;10676;50.848;3.272;2023-05-07T11:39:32;14.15;;;12.70;;
21034;SDS011;10676;50.848;3.272;2023-05-07T11:42:01;13.93;;;12.77;;
21034;SDS011;10676;50.848;3.272;2023-05-07T11:44:43;13.95;;;12.80;;
21034;SDS011;10676;50.848;3.272;2023-05-07T11:47:11;15.25;;;14.25;;
21034;SDS011;10676;50.848;3.272;2023-05-07T11:49:41;17.65;;;16.42;;
21034;SDS011;10676;50.848;3.272;2023-05-07T11:52:07;12.02;;;11.23;;
21034;SDS011;10676;50.848;3.272;2023-05-07T11:54:36;13.48;;;12.27;;
21034;SDS011;10676;50.848;3.272;2023-05-07T11:57:02;16.13;;;14.70;;
21034;SDS011;10676;50.848;3.272;2023-05-07T11:59:28;11.50;;;10.52;;
21034;SDS011;10676;50.848;3.272;2023-05-07T12:01:57;10.07;;;8.98;;
21034;SDS011;10676;50.848;3.272;2023-05-07T12:04:24;12.50;;;11.15;;
21034;SDS011;10676;50.848;3.272;2023-05-07T12:06:53;13.45;;;12.25;;
21034;SDS011;10676;50.848;3.272;2023-05-07T12:09:20;10.63;;;9.73;;
21034;SDS011;10676;50.848;3.272;2023-05-07T12:11:46;11.02;;;10.02;;
21034;SDS011;10676;50.848;3.272;2023-05-07T12:14:12;10.02;;;9.13;;
21034;SDS011;10676;50.848;3.272;2023-05-07T12:16:39;10.73;;;9.93;;
21034;SDS011;10676;50.848;3.272;2023-05-07T12:19:06;10.30;;;9.35;;
21034;SDS011;10676;50.848;3.272;2023-05-07T12:21:34;11.45;;;10.45;;
21034;SDS011;10676;50.848;3.272;2023-05-07T12:24:00;10.38;;;9.38;;
21034;SDS011;10676;50.848;3.272;2023-05-07T12:26:26;11.23;;;10.00;;
21034;SDS011;10676;50.848;3.272;2023-05-07T12:28:52;9.88;;;9.15;;
21034;SDS011;10676;50.848;3.272;2023-05-07T12:31:18;10.02;;;9.23;;
21034;SDS011;10676;50.848;3.272;2023-05-07T12:33:45;10.40;;;9.43;;
21034;SDS011;10676;50.848;3.272;2023-05-07T12:36:12;10.70;;;9.60;;
21034;SDS011;10676;50.848;3.272;2023-05-07T12:38:38;11.05;;;9.32;;
21034;SDS011;10676;50.848;3.272;2023-05-07T12:41:06;10.98;;;10.00;;
21034;SDS011;10676;50.848;3.272;2023-05-07T12:43:33;11.07;;;9.98;;
21034;SDS011;10676;50.848;3.272;2023-05-07T12:46:00;9.18;;;8.45;;
21034;SDS011;10676;50.848;3.272;2023-05-07T12:48:28;9.68;;;8.68;;
21034;SDS011;10676;50.848;3.272;2023-05-07T12:50:54;9.75;;;8.98;;
21034;SDS011;10676;50.848;3.272;2023-05-07T12:53:21;8.63;;;7.78;;
21034;SDS011;10676;50.848;3.272;2023-05-07T12:55:50;8.82;;;8.10;;
21034;SDS011;10676;50.848;3.272;2023-05-07T12:58:18;9.90;;;8.30;;
21034;SDS011;10676;50.848;3.272;2023-05-07T13:00:55;9.23;;;8.20;;
21034;SDS011;10676;50.848;3.272;2023-05-07T13:05:59;9.23;;;8.27;;
21034;SDS011;10676;50.848;3.272;2023-05-07T13:08:32;9.48;;;8.52;;
21034;SDS011;10676;50.848;3.272;2023-05-07T13:10:59;7.95;;;7.25;;
21034;SDS011;10676;50.848;3.272;2023-05-07T13:13:32;7.47;;;6.78;;
21034;SDS011;10676;50.848;3.272;2023-05-07T13:16:00;7.07;;;6.38;;
21034;SDS011;10676;50.848;3.272;2023-05-07T13:18:26;7.25;;;6.63;;
21034;SDS011;10676;50.848;3.272;2023-05-07T13:20:54;10.05;;;6.70;;
21034;SDS011;10676;50.848;3.272;2023-05-07T13:23:19;7.63;;;6.57;;
21034;SDS011;10676;50.848;3.272;2023-05-07T13:25:45;7.25;;;6.13;;
21034;SDS011;10676;50.848;3.272;2023-05-07T13:28:11;8.65;;;7.38;;
21034;SDS011;10676;50.848;3.272;2023-05-07T13:30:37;8.55;;;7.68;;
21034;SDS011;10676;50.848;3.272;2023-05-07T13:33:03;10.52;;;7.05;;
21034;SDS011;10676;50.848;3.272;2023-05-07T13:35:29;9.07;;;7.88;;
21034;SDS011;10676;50.848;3.272;2023-05-07T13:37:55;7.90;;;7.03;;
21034;SDS011;10676;50.848;3.272;2023-05-07T13:40:21;7.15;;;6.22;;
21034;SDS011;10676;50.848;3.272;2023-05-07T13:42:48;7.43;;;6.70;;
21034;SDS011;10676;50.848;3.272;2023-05-07T13:45:14;7.47;;;6.97;;
21034;SDS011;10676;50.848;3.272;2023-05-07T13:47:40;7.88;;;7.18;;
21034;SDS011;10676;50.848;3.272;2023-05-07T13:50:09;9.27;;;7.43;;
21034;SDS011;10676;50.848;3.272;2023-05-07T13:52:36;8.50;;;7.70;;
21034;SDS011;10676;50.848;3.272;2023-05-07T13:55:03;9.15;;;8.25;;
21034;SDS011;10676;50.848;3.272;2023-05-07T13:57:29;9.10;;;8.18;;
21034;SDS011;10676;50.848;3.272;2023-05-07T13:59:54;9.82;;;7.80;;
21034;SDS011;10676;50.848;3.272;2023-05-07T14:02:20;9.80;;;8.80;;
21034;SDS011;10676;50.848;3.272;2023-05-07T14:04:46;8.95;;;8.25;;
21034;SDS011;10676;50.848;3.272;2023-05-07T14:07:12;9.40;;;8.50;;
21034;SDS011;10676;50.848;3.272;2023-05-07T14:09:37;8.30;;;7.60;;
21034;SDS011;10676;50.848;3.272;2023-05-07T14:12:03;8.43;;;7.60;;
21034;SDS011;10676;50.848;3.272;2023-05-07T14:14:29;8.45;;;7.65;;
21034;SDS011;10676;50.848;3.272;2023-05-07T14:16:56;9.18;;;8.27;;
21034;SDS011;10676;50.848;3.272;2023-05-07T14:19:22;8.30;;;7.60;;
21034;SDS011;10676;50.848;3.272;2023-05-07T14:21:48;7.47;;;6.90;;
21034;SDS011;10676;50.848;3.272;2023-05-07T14:24:14;8.38;;;7.00;;
21034;SDS011;10676;50.848;3.272;2023-05-07T14:26:40;6.97;;;6.38;;
21034;SDS011;10676;50.848;3.272;2023-05-07T14:29:05;8.30;;;6.93;;
21034;SDS011;10676;50.848;3.272;2023-05-07T14:31:31;7.75;;;7.05;;
21034;SDS011;10676;50.848;3.272;2023-05-07T14:33:58;9.27;;;8.30;;
21034;SDS011;10676;50.848;3.272;2023-05-07T14:36:24;8.13;;;7.40;;
21034;SDS011;10676;50.848;3.272;2023-05-07T14:38:55;8.57;;;7.88;;
21034;SDS011;10676;50.848;3.272;2023-05-07T14:41:24;8.95;;;7.53;;
21034;SDS011;10676;50.848;3.272;2023-05-07T14:43:50;9.13;;;8.13;;